BIKF/KEF METAR and TAF weather

Enter ICAO airport designator
Station Type Date Time Source
BIKF METAR 2021/05/12 01:30 UTC NOAA

BIKF 120130Z 29003KT 9999 FEW022 SCT190 03/00 Q1021


Station Type Date Time Source
BIKF Decoded METAR 2021/05/12 01:30 UTC NOAA

Keflavikurflugvollur, Iceland (BIKF) 63-58N 022-36W 54M
May 11, 2021 - 09:30 PM EDT / 2021.05.12 0130 UTC
Wind: from the WNW (290 degrees) at 3 MPH (3 KT):0
Visibility: greater than 7 mile(s):0
Sky conditions: partly cloudy
Temperature: 37 F (3 C)
Dew Point: 32 F (0 C)
Relative Humidity: 80%
Pressure (altimeter): 30.15 in. Hg (1021 hPa)
ob: BIKF 120130Z 29003KT 9999 FEW022 SCT190 03/00 Q1021
cycle: 1

Station Type Date Time Source
BIKF TAF 2021/05/12 03:05 UTC NOAA

TAF BIKF 120102Z 1203/1303 30005KT 9999 SCT030 TX07/1215Z TN00/1205Z
TEMPO 1210/1218 -SHRA BKN015

Example: see airport list